F/V Attalaya Berria — FHCB — position and weather

sailwx.info

Track history (hours):
 
Tides and Currents Weather Stations Pressure Air Temp Water Temp Dewpoint Dewpoint Depression Visibility Wind Speed Wind Dir Waves Ship Positions

F/V Attalaya Berria

Last reported at 2018-Feb-16 06:33 UTC. Time now 2018-Feb-20 09:56 UTC.
Position N 43°22' W 001°47'.

Length 26 m.

Type: Fishing. MMSI: 228315000.

Date/timePositionNaut miles runAvg speedWind from/ knotsBaromVisibWave heightAir tempDewpointWater temp
2018-Feb-16 06:33N 43°22' W 001°47'0 0.7
2018-Feb-16 06:29N 43°22' W 001°47'1 2.8
2018-Feb-16 06:00N 43°23' W 001°47'4 7.9
2018-Feb-16 05:30N 43°23' W 001°52'4 0.8
2018-Feb-16 00:07N 43°20' W 001°56'1 8.6
2018-Feb-16 00:00N 43°21' W 001°55'5 9.0
2018-Feb-15 23:30N 43°24' W 001°51'6 9.1
2018-Feb-15 22:53N 43°27' W 001°44'2 6.1
2018-Feb-15 22:30N 43°28' W 001°42'0 0.5
2018-Feb-15 21:55N 43°28' W 001°42'0 0.4
2018-Feb-15 21:30N 43°28' W 001°42'0 0.5
2018-Feb-15 21:00N 43°28' W 001°42'0 0.7
2018-Feb-15 20:30N 43°28' W 001°42'3 2.0
2018-Feb-15 18:48N 43°25' W 001°44'0 1.2
2018-Feb-15 18:30N 43°25' W 001°44'3 0.3
2018-Feb-15 06:47N 43°23' W 001°47'2 6.3
2018-Feb-15 06:30N 43°24' W 001°49'5 9.7
2018-Feb-15 06:00N 43°21' W 001°55'1 0.6
2018-Feb-15 03:24N 43°20' W 001°56'4 9.1
2018-Feb-15 02:58N 43°23' W 001°52'5 9.6
2018-Feb-15 02:29N 43°25' W 001°46'4 8.1
2018-Feb-15 02:00N 43°27' W 001°42'0 0.5
2018-Feb-15 01:29N 43°27' W 001°42'0 0.5
2018-Feb-15 00:59N 43°27' W 001°42'0 0.8
2018-Feb-15 00:30N 43°27' W 001°42'1 2.7
2018-Feb-15 00:00N 43°26' W 001°43'0 0.8
2018-Feb-14 23:30N 43°26' W 001°43'3 6.0
2018-Feb-14 23:00N 43°27' W 001°39'3 5.2
2018-Feb-14 22:29N 43°29' W 001°41'5 1.2
2018-Feb-14 18:17N 43°25' W 001°45'3 0.1
2018-Feb-13 04:35N 43°22' W 001°47'1 6.8
2018-Feb-13 04:30N 43°23' W 001°47'2 3.9
2018-Feb-13 04:00N 43°24' W 001°46'1 2.9
2018-Feb-13 03:30N 43°23' W 001°47'3 6.7
2018-Feb-13 03:00N 43°24' W 001°43'2 4.5
2018-Feb-13 02:27N 43°23' W 001°40'0 0.3
2018-Feb-13 01:57N 43°23' W 001°40'3 5.9
2018-Feb-13 01:30N 43°25' W 001°43'1 2.4
2018-Feb-13 00:57N 43°26' W 001°43'1 1.4
2018-Feb-13 00:25N 43°26' W 001°44'3 4.8
2018-Feb-12 23:53N 43°27' W 001°41'0 0.6
2018-Feb-12 23:22N 43°27' W 001°42'1 3.5
2018-Feb-12 22:57N 43°26' W 001°40'2 3.8
2018-Feb-12 22:30N 43°27' W 001°39'4 6.3
2018-Feb-12 21:54N 43°26' W 001°44'3 7.3
2018-Feb-12 21:28N 43°24' W 001°47'1 1.1
2018-Feb-12 21:00N 43°24' W 001°47'3 5.5
2018-Feb-12 20:29N 43°25' W 001°43'0 0.6
2018-Feb-12 19:59N 43°24' W 001°43'2 3.3
2018-Feb-12 19:30N 43°26' W 001°43'2 4.3
2018-Feb-12 19:00N 43°27' W 001°41'3 6.3
2018-Feb-12 18:30N 43°25' W 001°43'  
2018-Feb-07 03:58N 43°22' W 001°47'3 5.8
2018-Feb-07 03:30N 43°25' W 001°46'2 3.6
2018-Feb-07 02:59N 43°25' W 001°44'3 3.4
2018-Feb-07 02:00N 43°26' W 001°40'1 1.3
2018-Feb-07 01:30N 43°26' W 001°39'2 1.8
2018-Feb-07 00:29N 43°27' W 001°41'6 2.9
2018-Feb-06 22:29N 43°24' W 001°47'  
Track history (hours):
 
Tides and Currents Weather Stations Pressure Air Temp Water Temp Dewpoint Dewpoint Depression Visibility Wind Speed Wind Dir Waves Ship Positions

F/V Attalaya Berria

Last reported at 2018-Feb-16 06:33 UTC. Time now 2018-Feb-20 09:56 UTC.
Position N 43°22' W 001°47'.

Length 26 m.

Type: Fishing. MMSI: 228315000.

Date/timePositionNaut miles runAvg speedWind from/ knotsBaromVisibWave heightAir tempDewpointWater temp
2018-Feb-16 06:33N 43°22' W 001°47'0 0.7
2018-Feb-16 06:29N 43°22' W 001°47'1 2.8
2018-Feb-16 06:00N 43°23' W 001°47'4 7.9
2018-Feb-16 05:30N 43°23' W 001°52'4 0.8
2018-Feb-16 00:07N 43°20' W 001°56'1 8.6
2018-Feb-16 00:00N 43°21' W 001°55'5 9.0
2018-Feb-15 23:30N 43°24' W 001°51'6 9.1
2018-Feb-15 22:53N 43°27' W 001°44'2 6.1
2018-Feb-15 22:30N 43°28' W 001°42'0 0.5
2018-Feb-15 21:55N 43°28' W 001°42'0 0.4
2018-Feb-15 21:30N 43°28' W 001°42'0 0.5
2018-Feb-15 21:00N 43°28' W 001°42'0 0.7
2018-Feb-15 20:30N 43°28' W 001°42'3 2.0
2018-Feb-15 18:48N 43°25' W 001°44'0 1.2
2018-Feb-15 18:30N 43°25' W 001°44'3 0.3
2018-Feb-15 06:47N 43°23' W 001°47'2 6.3
2018-Feb-15 06:30N 43°24' W 001°49'5 9.7
2018-Feb-15 06:00N 43°21' W 001°55'1 0.6
2018-Feb-15 03:24N 43°20' W 001°56'4 9.1
2018-Feb-15 02:58N 43°23' W 001°52'5 9.6
2018-Feb-15 02:29N 43°25' W 001°46'4 8.1
2018-Feb-15 02:00N 43°27' W 001°42'0 0.5
2018-Feb-15 01:29N 43°27' W 001°42'0 0.5
2018-Feb-15 00:59N 43°27' W 001°42'0 0.8
2018-Feb-15 00:30N 43°27' W 001°42'1 2.7
2018-Feb-15 00:00N 43°26' W 001°43'0 0.8
2018-Feb-14 23:30N 43°26' W 001°43'3 6.0
2018-Feb-14 23:00N 43°27' W 001°39'3 5.2
2018-Feb-14 22:29N 43°29' W 001°41'5 1.2
2018-Feb-14 18:17N 43°25' W 001°45'3 0.1
2018-Feb-13 04:35N 43°22' W 001°47'1 6.8
2018-Feb-13 04:30N 43°23' W 001°47'2 3.9
2018-Feb-13 04:00N 43°24' W 001°46'1 2.9
2018-Feb-13 03:30N 43°23' W 001°47'3 6.7
2018-Feb-13 03:00N 43°24' W 001°43'2 4.5
2018-Feb-13 02:27N 43°23' W 001°40'0 0.3
2018-Feb-13 01:57N 43°23' W 001°40'3 5.9
2018-Feb-13 01:30N 43°25' W 001°43'1 2.4
2018-Feb-13 00:57N 43°26' W 001°43'1 1.4
2018-Feb-13 00:25N 43°26' W 001°44'3 4.8
2018-Feb-12 23:53N 43°27' W 001°41'0 0.6
2018-Feb-12 23:22N 43°27' W 001°42'1 3.5
2018-Feb-12 22:57N 43°26' W 001°40'2 3.8
2018-Feb-12 22:30N 43°27' W 001°39'4 6.3
2018-Feb-12 21:54N 43°26' W 001°44'3 7.3
2018-Feb-12 21:28N 43°24' W 001°47'1 1.1
2018-Feb-12 21:00N 43°24' W 001°47'3 5.5
2018-Feb-12 20:29N 43°25' W 001°43'0 0.6
2018-Feb-12 19:59N 43°24' W 001°43'2 3.3
2018-Feb-12 19:30N 43°26' W 001°43'2 4.3
2018-Feb-12 19:00N 43°27' W 001°41'3 6.3
2018-Feb-12 18:30N 43°25' W 001°43'  
2018-Feb-07 03:58N 43°22' W 001°47'3 5.8
2018-Feb-07 03:30N 43°25' W 001°46'2 3.6
2018-Feb-07 02:59N 43°25' W 001°44'3 3.4
2018-Feb-07 02:00N 43°26' W 001°40'1 1.3
2018-Feb-07 01:30N 43°26' W 001°39'2 1.8
2018-Feb-07 00:29N 43°27' W 001°41'6 2.9
2018-Feb-06 22:29N 43°24' W 001°47'  

Dump ship's entire track history